sensor_id;sensor_type;location;lat;lon;timestamp;temperature;humidity
68109;SHT30;54893;49.864;19.084;2023-05-10T00:01:39;7.02;69.47
68109;SHT30;54893;49.864;19.084;2023-05-10T00:06:40;6.86;67.78
68109;SHT30;54893;49.864;19.084;2023-05-10T00:11:40;6.53;70.70
68109;SHT30;54893;49.864;19.084;2023-05-10T00:16:41;5.98;73.55
68109;SHT30;54893;49.864;19.084;2023-05-10T00:21:41;5.75;72.81
68109;SHT30;54893;49.864;19.084;2023-05-10T00:26:42;5.53;75.07
68109;SHT30;54893;49.864;19.084;2023-05-10T00:31:42;5.33;76.62
68109;SHT30;54893;49.864;19.084;2023-05-10T00:36:42;5.29;75.86
68109;SHT30;54893;49.864;19.084;2023-05-10T00:41:43;5.26;75.74
68109;SHT30;54893;49.864;19.084;2023-05-10T00:46:43;5.05;75.40
68109;SHT30;54893;49.864;19.084;2023-05-10T00:51:44;4.95;76.77
68109;SHT30;54893;49.864;19.084;2023-05-10T00:56:45;4.72;76.49
68109;SHT30;54893;49.864;19.084;2023-05-10T01:01:48;4.48;81.48
68109;SHT30;54893;49.864;19.084;2023-05-10T01:06:49;4.31;81.23
68109;SHT30;54893;49.864;19.084;2023-05-10T01:11:49;4.20;83.00
68109;SHT30;54893;49.864;19.084;2023-05-10T01:16:50;4.10;82.69
68109;SHT30;54893;49.864;19.084;2023-05-10T01:27:47;3.94;80.83
68109;SHT30;54893;49.864;19.084;2023-05-10T01:38:38;3.82;84.48
68109;SHT30;54893;49.864;19.084;2023-05-10T01:44:20;3.79;83.45
68109;SHT30;54893;49.864;19.084;2023-05-10T01:49:31;3.72;81.29
68109;SHT30;54893;49.864;19.084;2023-05-10T01:54:33;3.60;81.68
68109;SHT30;54893;49.864;19.084;2023-05-10T01:59:36;3.53;84.32
68109;SHT30;54893;49.864;19.084;2023-05-10T02:04:42;3.49;85.62
68109;SHT30;54893;49.864;19.084;2023-05-10T02:09:44;3.40;85.27
68109;SHT30;54893;49.864;19.084;2023-05-10T02:14:48;3.29;85.93
68109;SHT30;54893;49.864;19.084;2023-05-10T02:19:49;3.25;84.33
68109;SHT30;54893;49.864;19.084;2023-05-10T02:24:51;3.15;86.67
68109;SHT30;54893;49.864;19.084;2023-05-10T02:29:54;3.20;85.49
68109;SHT30;54893;49.864;19.084;2023-05-10T02:34:55;3.18;86.88
68109;SHT30;54893;49.864;19.084;2023-05-10T02:39:56;3.01;87.14
68109;SHT30;54893;49.864;19.084;2023-05-10T02:45:01;2.94;87.26
68109;SHT30;54893;49.864;19.084;2023-05-10T02:50:02;2.96;86.33
68109;SHT30;54893;49.864;19.084;2023-05-10T02:55:04;2.98;83.41
68109;SHT30;54893;49.864;19.084;2023-05-10T03:00:06;3.01;85.53
68109;SHT30;54893;49.864;19.084;2023-05-10T03:05:07;3.06;86.40
68109;SHT30;54893;49.864;19.084;2023-05-10T03:10:08;2.99;86.74
68109;SHT30;54893;49.864;19.084;2023-05-10T03:15:12;2.95;88.03
68109;SHT30;54893;49.864;19.084;2023-05-10T03:20:27;2.99;87.13
68109;SHT30;54893;49.864;19.084;2023-05-10T03:25:31;3.20;85.48
68109;SHT30;54893;49.864;19.084;2023-05-10T03:30:32;3.43;78.73
68109;SHT30;54893;49.864;19.084;2023-05-10T03:35:33;3.48;83.86
68109;SHT30;54893;49.864;19.084;2023-05-10T03:40:34;3.55;81.70
68109;SHT30;54893;49.864;19.084;2023-05-10T03:45:34;3.67;80.70
68109;SHT30;54893;49.864;19.084;2023-05-10T03:50:35;3.84;81.35
68109;SHT30;54893;49.864;19.084;2023-05-10T03:55:36;3.95;77.71
68109;SHT30;54893;49.864;19.084;2023-05-10T04:00:36;4.36;86.68
68109;SHT30;54893;49.864;19.084;2023-05-10T04:05:37;4.75;76.55
68109;SHT30;54893;49.864;19.084;2023-05-10T04:10:37;5.29;83.96
68109;SHT30;54893;49.864;19.084;2023-05-10T04:15:38;6.21;82.60
68109;SHT30;54893;49.864;19.084;2023-05-10T04:20:38;6.99;80.37
68109;SHT30;54893;49.864;19.084;2023-05-10T04:25:39;7.16;80.58
68109;SHT30;54893;49.864;19.084;2023-05-10T04:30:39;7.15;79.64
68109;SHT30;54893;49.864;19.084;2023-05-10T04:35:40;7.67;74.57
68109;SHT30;54893;49.864;19.084;2023-05-10T04:40:41;8.34;77.12
68109;SHT30;54893;49.864;19.084;2023-05-10T04:45:41;8.83;76.01
68109;SHT30;54893;49.864;19.084;2023-05-10T04:50:41;9.06;77.52
68109;SHT30;54893;49.864;19.084;2023-05-10T04:55:42;9.47;75.18
68109;SHT30;54893;49.864;19.084;2023-05-10T05:00:42;9.44;75.01
68109;SHT30;54893;49.864;19.084;2023-05-10T05:05:43;9.98;73.20
68109;SHT30;54893;49.864;19.084;2023-05-10T05:10:44;10.92;72.93
68109;SHT30;54893;49.864;19.084;2023-05-10T05:15:45;10.92;71.96
68109;SHT30;54893;49.864;19.084;2023-05-10T05:20:46;11.58;69.70
68109;SHT30;54893;49.864;19.084;2023-05-10T05:25:46;11.88;69.26
68109;SHT30;54893;49.864;19.084;2023-05-10T05:30:48;12.02;67.06
68109;SHT30;54893;49.864;19.084;2023-05-10T05:35:48;12.32;67.89
68109;SHT30;54893;49.864;19.084;2023-05-10T05:40:50;12.44;66.67
68109;SHT30;54893;49.864;19.084;2023-05-10T05:45:54;12.85;65.80
68109;SHT30;54893;49.864;19.084;2023-05-10T05:50:55;12.96;65.10
68109;SHT30;54893;49.864;19.084;2023-05-10T05:55:58;13.06;65.38
68109;SHT30;54893;49.864;19.084;2023-05-10T06:00:58;13.34;64.58
68109;SHT30;54893;49.864;19.084;2023-05-10T06:05:59;13.51;64.57
68109;SHT30;54893;49.864;19.084;2023-05-10T06:11:00;13.95;63.00
68109;SHT30;54893;49.864;19.084;2023-05-10T06:16:02;14.28;62.84
68109;SHT30;54893;49.864;19.084;2023-05-10T06:21:02;14.58;60.62
68109;SHT30;54893;49.864;19.084;2023-05-10T06:26:03;15.06;59.41
68109;SHT30;54893;49.864;19.084;2023-05-10T06:31:04;15.88;57.91
68109;SHT30;54893;49.864;19.084;2023-05-10T06:36:05;16.05;57.76
68109;SHT30;54893;49.864;19.084;2023-05-10T06:41:05;15.83;53.39
68109;SHT30;54893;49.864;19.084;2023-05-10T06:46:06;16.93;55.25
68109;SHT30;54893;49.864;19.084;2023-05-10T06:51:07;16.92;53.27
68109;SHT30;54893;49.864;19.084;2023-05-10T06:56:07;17.51;51.65
68109;SHT30;54893;49.864;19.084;2023-05-10T07:01:08;17.39;55.04
68109;SHT30;54893;49.864;19.084;2023-05-10T07:06:08;16.90;51.90
68109;SHT30;54893;49.864;19.084;2023-05-10T07:11:09;17.09;52.41
68109;SHT30;54893;49.864;19.084;2023-05-10T07:16:10;18.15;51.00
68109;SHT30;54893;49.864;19.084;2023-05-10T07:21:11;18.22;49.91
68109;SHT30;54893;49.864;19.084;2023-05-10T07:26:11;18.09;51.50
68109;SHT30;54893;49.864;19.084;2023-05-10T07:31:12;19.28;49.71
68109;SHT30;54893;49.864;19.084;2023-05-10T07:36:12;19.50;49.47
68109;SHT30;54893;49.864;19.084;2023-05-10T07:41:12;19.60;49.38
68109;SHT30;54893;49.864;19.084;2023-05-10T07:46:13;19.61;50.02
68109;SHT30;54893;49.864;19.084;2023-05-10T07:51:13;19.59;48.33
68109;SHT30;54893;49.864;19.084;2023-05-10T07:56:27;19.40;45.95
68109;SHT30;54893;49.864;19.084;2023-05-10T08:01:31;20.05;47.57
68109;SHT30;54893;49.864;19.084;2023-05-10T08:06:32;20.39;47.03
68109;SHT30;54893;49.864;19.084;2023-05-10T08:11:32;20.11;48.37
68109;SHT30;54893;49.864;19.084;2023-05-10T08:16:33;20.15;48.58
68109;SHT30;54893;49.864;19.084;2023-05-10T08:21:34;20.47;47.08
68109;SHT30;54893;49.864;19.084;2023-05-10T08:26:35;20.80;48.14
68109;SHT30;54893;49.864;19.084;2023-05-10T08:31:36;20.90;47.01
68109;SHT30;54893;49.864;19.084;2023-05-10T08:36:36;20.72;47.75
68109;SHT30;54893;49.864;19.084;2023-05-10T08:41:38;21.42;47.66
68109;SHT30;54893;49.864;19.084;2023-05-10T08:46:40;20.35;47.55
68109;SHT30;54893;49.864;19.084;2023-05-10T08:51:53;19.17;50.60
68109;SHT30;54893;49.864;19.084;2023-05-10T08:56:54;19.30;48.46
68109;SHT30;54893;49.864;19.084;2023-05-10T09:01:57;19.34;49.95
68109;SHT30;54893;49.864;19.084;2023-05-10T09:06:58;18.52;51.15
68109;SHT30;54893;49.864;19.084;2023-05-10T09:11:58;17.84;51.98
68109;SHT30;54893;49.864;19.084;2023-05-10T09:16:59;17.81;51.35
68109;SHT30;54893;49.864;19.084;2023-05-10T09:21:59;17.64;51.94
68109;SHT30;54893;49.864;19.084;2023-05-10T09:27:01;17.27;52.06
68109;SHT30;54893;49.864;19.084;2023-05-10T09:32:02;16.77;52.29
68109;SHT30;54893;49.864;19.084;2023-05-10T09:37:02;16.87;52.49
68109;SHT30;54893;49.864;19.084;2023-05-10T09:42:07;16.90;52.29
68109;SHT30;54893;49.864;19.084;2023-05-10T09:47:08;17.91;51.23
68109;SHT30;54893;49.864;19.084;2023-05-10T09:52:09;19.15;49.12
68109;SHT30;54893;49.864;19.084;2023-05-10T09:57:20;19.31;49.35
68109;SHT30;54893;49.864;19.084;2023-05-10T10:02:28;18.98;47.27
68109;SHT30;54893;49.864;19.084;2023-05-10T10:07:29;18.28;49.72
68109;SHT30;54893;49.864;19.084;2023-05-10T10:12:29;18.61;49.40
68109;SHT30;54893;49.864;19.084;2023-05-10T10:17:30;19.51;48.04
68109;SHT30;54893;49.864;19.084;2023-05-10T10:22:30;20.71;47.41
68109;SHT30;54893;49.864;19.084;2023-05-10T10:37:55;19.94;47.75
68109;SHT30;54893;49.864;19.084;2023-05-10T10:42:57;19.98;48.36
68109;SHT30;54893;49.864;19.084;2023-05-10T10:48:22;19.80;48.16
68109;SHT30;54893;49.864;19.084;2023-05-10T10:53:26;20.28;47.57
68109;SHT30;54893;49.864;19.084;2023-05-10T10:58:30;20.48;47.05
68109;SHT30;54893;49.864;19.084;2023-05-10T11:03:34;20.68;46.88
68109;SHT30;54893;49.864;19.084;2023-05-10T11:08:42;20.64;48.05
68109;SHT30;54893;49.864;19.084;2023-05-10T11:13:45;20.55;47.64
68109;SHT30;54893;49.864;19.084;2023-05-10T11:19:02;20.35;47.04
68109;SHT30;54893;49.864;19.084;2023-05-10T11:24:13;20.62;46.56
68109;SHT30;54893;49.864;19.084;2023-05-10T11:29:14;20.18;47.03
68109;SHT30;54893;49.864;19.084;2023-05-10T11:34:31;20.17;47.53
68109;SHT30;54893;49.864;19.084;2023-05-10T11:39:33;20.08;48.13
68109;SHT30;54893;49.864;19.084;2023-05-10T11:44:34;20.07;48.47
68109;SHT30;54893;49.864;19.084;2023-05-10T11:49:34;20.31;48.40
68109;SHT30;54893;49.864;19.084;2023-05-10T11:54:35;19.93;47.84
68109;SHT30;54893;49.864;19.084;2023-05-10T11:59:36;19.93;47.43
68109;SHT30;54893;49.864;19.084;2023-05-10T12:04:36;19.84;48.47
68109;SHT30;54893;49.864;19.084;2023-05-10T12:09:48;19.66;48.43
68109;SHT30;54893;49.864;19.084;2023-05-10T12:15:02;19.64;48.62
68109;SHT30;54893;49.864;19.084;2023-05-10T12:20:22;19.69;46.78
68109;SHT30;54893;49.864;19.084;2023-05-10T12:25:24;19.77;47.00
68109;SHT30;54893;49.864;19.084;2023-05-10T12:30:31;20.28;47.07
68109;SHT30;54893;49.864;19.084;2023-05-10T12:35:32;20.25;47.23
68109;SHT30;54893;49.864;19.084;2023-05-10T12:40:33;20.20;47.38
68109;SHT30;54893;49.864;19.084;2023-05-10T12:45:33;19.77;47.14
68109;SHT30;54893;49.864;19.084;2023-05-10T12:50:33;19.91;47.52
68109;SHT30;54893;49.864;19.084;2023-05-10T12:55:34;20.28;47.96
68109;SHT30;54893;49.864;19.084;2023-05-10T13:00:34;21.10;45.25
68109;SHT30;54893;49.864;19.084;2023-05-10T13:05:35;21.57;46.21
68109;SHT30;54893;49.864;19.084;2023-05-10T13:10:35;21.94;45.61
68109;SHT30;54893;49.864;19.084;2023-05-10T13:15:36;22.10;44.98
68109;SHT30;54893;49.864;19.084;2023-05-10T13:20:36;21.76;45.06
68109;SHT30;54893;49.864;19.084;2023-05-10T13:25:37;21.94;43.21
68109;SHT30;54893;49.864;19.084;2023-05-10T13:30:37;21.76;45.49
68109;SHT30;54893;49.864;19.084;2023-05-10T13:35:37;21.32;45.84
68109;SHT30;54893;49.864;19.084;2023-05-10T13:40:38;21.34;45.13
68109;SHT30;54893;49.864;19.084;2023-05-10T13:45:38;20.83;45.48
68109;SHT30;54893;49.864;19.084;2023-05-10T13:50:39;21.96;44.58
68109;SHT30;54893;49.864;19.084;2023-05-10T13:55:40;22.08;45.06
68109;SHT30;54893;49.864;19.084;2023-05-10T14:00:40;22.00;45.56
68109;SHT30;54893;49.864;19.084;2023-05-10T14:05:40;21.80;45.71
68109;SHT30;54893;49.864;19.084;2023-05-10T14:10:41;21.51;43.78
68109;SHT30;54893;49.864;19.084;2023-05-10T14:15:41;21.16;42.22
68109;SHT30;54893;49.864;19.084;2023-05-10T14:20:42;21.03;47.04
68109;SHT30;54893;49.864;19.084;2023-05-10T14:25:42;20.76;47.29
68109;SHT30;54893;49.864;19.084;2023-05-10T14:30:43;20.29;47.01
68109;SHT30;54893;49.864;19.084;2023-05-10T14:35:44;20.03;46.63
68109;SHT30;54893;49.864;19.084;2023-05-10T14:40:45;19.91;47.58
68109;SHT30;54893;49.864;19.084;2023-05-10T14:45:45;19.77;48.42
68109;SHT30;54893;49.864;19.084;2023-05-10T14:50:46;19.94;47.97
68109;SHT30;54893;49.864;19.084;2023-05-10T14:55:47;20.05;48.10
68109;SHT30;54893;49.864;19.084;2023-05-10T15:00:47;20.13;47.36
68109;SHT30;54893;49.864;19.084;2023-05-10T15:05:47;20.21;49.30
68109;SHT30;54893;49.864;19.084;2023-05-10T15:10:48;20.38;47.76
68109;SHT30;54893;49.864;19.084;2023-05-10T15:15:48;20.62;46.27
68109;SHT30;54893;49.864;19.084;2023-05-10T15:20:49;20.67;46.55
68109;SHT30;54893;49.864;19.084;2023-05-10T15:25:49;20.56;47.23
68109;SHT30;54893;49.864;19.084;2023-05-10T15:30:50;20.31;47.01
68109;SHT30;54893;49.864;19.084;2023-05-10T15:35:51;20.36;47.73
68109;SHT30;54893;49.864;19.084;2023-05-10T15:40:56;19.93;48.14
68109;SHT30;54893;49.864;19.084;2023-05-10T15:45:57;19.73;48.23
68109;SHT30;54893;49.864;19.084;2023-05-10T15:50:58;19.56;47.98
68109;SHT30;54893;49.864;19.084;2023-05-10T15:55:58;19.87;48.46
68109;SHT30;54893;49.864;19.084;2023-05-10T16:00:59;19.77;48.61
68109;SHT30;54893;49.864;19.084;2023-05-10T16:05:59;19.73;47.91
68109;SHT30;54893;49.864;19.084;2023-05-10T16:11:00;19.51;48.83
68109;SHT30;54893;49.864;19.084;2023-05-10T16:16:00;19.61;48.78
68109;SHT30;54893;49.864;19.084;2023-05-10T16:21:01;19.64;49.00
68109;SHT30;54893;49.864;19.084;2023-05-10T16:26:01;19.41;48.82
68109;SHT30;54893;49.864;19.084;2023-05-10T16:31:02;19.13;48.59
68109;SHT30;54893;49.864;19.084;2023-05-10T16:36:03;19.13;50.53
68109;SHT30;54893;49.864;19.084;2023-05-10T16:41:05;18.96;50.06
68109;SHT30;54893;49.864;19.084;2023-05-10T16:46:09;18.61;50.51
68109;SHT30;54893;49.864;19.084;2023-05-10T16:51:10;18.56;50.44
68109;SHT30;54893;49.864;19.084;2023-05-10T16:56:11;18.08;50.60
68109;SHT30;54893;49.864;19.084;2023-05-10T17:01:11;17.93;51.46
68109;SHT30;54893;49.864;19.084;2023-05-10T17:06:12;17.81;52.07
68109;SHT30;54893;49.864;19.084;2023-05-10T17:11:13;17.73;52.15
68109;SHT30;54893;49.864;19.084;2023-05-10T17:16:13;17.46;54.51
68109;SHT30;54893;49.864;19.084;2023-05-10T17:21:13;17.26;53.90
68109;SHT30;54893;49.864;19.084;2023-05-10T17:26:14;17.12;53.90
68109;SHT30;54893;49.864;19.084;2023-05-10T17:31:14;16.92;54.84
68109;SHT30;54893;49.864;19.084;2023-05-10T17:36:15;16.62;55.26
68109;SHT30;54893;49.864;19.084;2023-05-10T17:41:15;16.35;55.39
68109;SHT30;54893;49.864;19.084;2023-05-10T17:46:16;15.98;57.38
68109;SHT30;54893;49.864;19.084;2023-05-10T17:51:17;15.47;60.02
68109;SHT30;54893;49.864;19.084;2023-05-10T17:56:19;16.29;55.98
68109;SHT30;54893;49.864;19.084;2023-05-10T18:01:21;15.64;58.01
68109;SHT30;54893;49.864;19.084;2023-05-10T18:06:21;15.11;59.46
68109;SHT30;54893;49.864;19.084;2023-05-10T18:11:22;14.95;58.41
68109;SHT30;54893;49.864;19.084;2023-05-10T18:16:23;14.80;59.99
68109;SHT30;54893;49.864;19.084;2023-05-10T18:21:23;14.66;59.81
68109;SHT30;54893;49.864;19.084;2023-05-10T18:26:24;14.59;58.16
68109;SHT30;54893;49.864;19.084;2023-05-10T18:31:25;14.69;58.05
68109;SHT30;54893;49.864;19.084;2023-05-10T18:36:25;14.87;56.92
68109;SHT30;54893;49.864;19.084;2023-05-10T18:41:27;14.45;59.75
68109;SHT30;54893;49.864;19.084;2023-05-10T18:46:27;14.08;61.03
68109;SHT30;54893;49.864;19.084;2023-05-10T18:51:28;14.17;58.45
68109;SHT30;54893;49.864;19.084;2023-05-10T18:56:30;14.15;59.53
68109;SHT30;54893;49.864;19.084;2023-05-10T19:01:32;13.88;62.83
68109;SHT30;54893;49.864;19.084;2023-05-10T19:06:35;13.92;59.48
68109;SHT30;54893;49.864;19.084;2023-05-10T19:11:36;14.02;61.18
68109;SHT30;54893;49.864;19.084;2023-05-10T19:16:38;13.98;59.35
68109;SHT30;54893;49.864;19.084;2023-05-10T19:21:38;13.89;59.62
68109;SHT30;54893;49.864;19.084;2023-05-10T19:26:39;13.95;60.65
68109;SHT30;54893;49.864;19.084;2023-05-10T19:31:40;13.89;60.72
68109;SHT30;54893;49.864;19.084;2023-05-10T19:36:40;13.78;61.03
68109;SHT30;54893;49.864;19.084;2023-05-10T19:41:41;13.61;62.20
68109;SHT30;54893;49.864;19.084;2023-05-10T19:46:41;13.54;63.08
68109;SHT30;54893;49.864;19.084;2023-05-10T19:51:41;13.44;63.93
68109;SHT30;54893;49.864;19.084;2023-05-10T19:56:42;13.34;64.72
68109;SHT30;54893;49.864;19.084;2023-05-10T20:01:42;13.36;61.62
68109;SHT30;54893;49.864;19.084;2023-05-10T20:06:43;13.28;64.61
68109;SHT30;54893;49.864;19.084;2023-05-10T20:11:43;13.06;63.08
68109;SHT30;54893;49.864;19.084;2023-05-10T20:16:43;13.06;62.64
68109;SHT30;54893;49.864;19.084;2023-05-10T20:21:44;12.93;65.15
68109;SHT30;54893;49.864;19.084;2023-05-10T20:26:44;12.85;67.04
68109;SHT30;54893;49.864;19.084;2023-05-10T20:31:44;12.68;66.64
68109;SHT30;54893;49.864;19.084;2023-05-10T20:36:47;12.59;65.56
68109;SHT30;54893;49.864;19.084;2023-05-10T20:41:48;12.39;67.62
68109;SHT30;54893;49.864;19.084;2023-05-10T20:46:48;12.11;69.54
68109;SHT30;54893;49.864;19.084;2023-05-10T20:51:49;11.92;71.17
68109;SHT30;54893;49.864;19.084;2023-05-10T20:56:50;11.94;67.32
68109;SHT30;54893;49.864;19.084;2023-05-10T21:01:50;11.88;70.01
68109;SHT30;54893;49.864;19.084;2023-05-10T21:06:51;11.74;71.32
68109;SHT30;54893;49.864;19.084;2023-05-10T21:11:52;11.67;70.44
68109;SHT30;54893;49.864;19.084;2023-05-10T21:16:52;11.61;70.79
68109;SHT30;54893;49.864;19.084;2023-05-10T21:21:53;11.50;69.95
68109;SHT30;54893;49.864;19.084;2023-05-10T21:26:55;11.51;69.24
68109;SHT30;54893;49.864;19.084;2023-05-10T21:31:55;11.20;74.20
68109;SHT30;54893;49.864;19.084;2023-05-10T21:36:56;10.82;76.01
68109;SHT30;54893;49.864;19.084;2023-05-10T21:41:57;10.69;72.32
68109;SHT30;54893;49.864;19.084;2023-05-10T21:46:58;10.76;73.10
68109;SHT30;54893;49.864;19.084;2023-05-10T21:51:59;10.75;75.19
68109;SHT30;54893;49.864;19.084;2023-05-10T21:56:59;10.56;74.07
68109;SHT30;54893;49.864;19.084;2023-05-10T22:02:00;10.44;74.24
68109;SHT30;54893;49.864;19.084;2023-05-10T22:07:00;10.36;74.66
68109;SHT30;54893;49.864;19.084;2023-05-10T22:12:00;10.38;74.64
68109;SHT30;54893;49.864;19.084;2023-05-10T22:17:01;10.50;75.23
68109;SHT30;54893;49.864;19.084;2023-05-10T22:22:01;10.55;75.45
68109;SHT30;54893;49.864;19.084;2023-05-10T22:27:02;10.55;72.81
68109;SHT30;54893;49.864;19.084;2023-05-10T22:32:03;10.32;79.18
68109;SHT30;54893;49.864;19.084;2023-05-10T22:37:05;9.92;81.67
68109;SHT30;54893;49.864;19.084;2023-05-10T22:42:05;9.67;80.23
68109;SHT30;54893;49.864;19.084;2023-05-10T22:47:06;9.73;80.36
68109;SHT30;54893;49.864;19.084;2023-05-10T22:52:08;9.82;80.38
68109;SHT30;54893;49.864;19.084;2023-05-10T22:57:08;10.01;74.40
68109;SHT30;54893;49.864;19.084;2023-05-10T23:02:09;9.92;74.23
68109;SHT30;54893;49.864;19.084;2023-05-10T23:07:10;9.99;75.51
68109;SHT30;54893;49.864;19.084;2023-05-10T23:12:10;9.94;76.76
68109;SHT30;54893;49.864;19.084;2023-05-10T23:17:11;9.85;75.80
68109;SHT30;54893;49.864;19.084;2023-05-10T23:22:12;9.73;76.11
68109;SHT30;54893;49.864;19.084;2023-05-10T23:27:13;9.64;76.21
68109;SHT30;54893;49.864;19.084;2023-05-10T23:32:13;9.60;75.40
68109;SHT30;54893;49.864;19.084;2023-05-10T23:37:14;9.54;76.70
68109;SHT30;54893;49.864;19.084;2023-05-10T23:42:14;9.37;74.55
68109;SHT30;54893;49.864;19.084;2023-05-10T23:47:15;9.36;74.58
68109;SHT30;54893;49.864;19.084;2023-05-10T23:52:16;9.37;73.28
68109;SHT30;54893;49.864;19.084;2023-05-10T23:57:16;9.19;76.36
